»·PEaware :: N38842 KSNA-KSNA

N38842 :: KSNA-KSNA

FLIGHT INFORMATION

Flight Status: Arrived
Operator: Privately registered:
United States
More flights under this callsign
Pilot: Will Z. (31117)
Aircraft: PIPER PA-28 CHEROKEE ARCHER
(PA28)
More flights by this aircraft type
Origin: KSNA John Wayne-Orange Co
United States
Destination: KSNA John Wayne-Orange Co
United States
More flights between these airports :: More routes between these airports
Route: +SLI
File this flight plan on PilotEdge
Remarks:
Altitude:
(Current/Filed)
4,000ft
Speed:
(Current/Filed)
120kts
Departed: 21-Nov-20 05:17 PM
Arrived: 21-Nov-20 05:44 PM
Distance/Time
Traveled:
0nm/0:27
Distance/Time
To Go:
Arrived

Flight Plot

Page will automatically refresh every two minutes.


Map Options




Map Legend


Flown Route
Filed Route
Departure Airport
Arrival Airport
Navaid (VOR, NDB)
Fix

Horizontal Profiles

Position Reports

Time Latitude Longitude Heading Altitude Ground
Speed
21-Nov-20 16:56 33.676205 -117.871104 212 60ft 0kts
21-Nov-20 16:57 33.676205 -117.871104 212 60ft 0kts
21-Nov-20 16:58 33.676205 -117.871104 212 60ft 0kts
21-Nov-20 16:59 33.676205 -117.871104 212 60ft 0kts
21-Nov-20 17:00 33.676205 -117.871104 212 60ft 0kts
21-Nov-20 17:01 33.676205 -117.871104 212 60ft 0kts
21-Nov-20 17:02 33.676205 -117.871104 212 60ft 0kts
21-Nov-20 17:03 33.676205 -117.871104 212 60ft 0kts
21-Nov-20 17:04 33.676205 -117.871104 212 60ft 0kts
21-Nov-20 17:05 33.676205 -117.871104 212 60ft 0kts
21-Nov-20 17:06 33.676205 -117.871104 212 60ft 0kts
21-Nov-20 17:07 33.676205 -117.871104 212 60ft 0kts
21-Nov-20 17:08 33.676205 -117.871104 212 60ft 0kts
21-Nov-20 17:09 33.676205 -117.871104 212 60ft 0kts
21-Nov-20 17:10 33.675855 -117.870777 114 60ft 4kts
21-Nov-20 17:11 33.678716 -117.868421 26 60ft 18kts
21-Nov-20 17:12 33.681248 -117.866618 100 60ft 0kts
21-Nov-20 17:13 33.681248 -117.866618 100 60ft 0kts
21-Nov-20 17:14 33.681248 -117.866618 100 60ft 0kts
21-Nov-20 17:15 33.681166 -117.866311 114 60ft 6kts
21-Nov-20 17:16 33.670133 -117.872614 210 367ft 92kts
21-Nov-20 17:17 33.648667 -117.897899 227 1218ft 108kts
21-Nov-20 17:18 33.627510 -117.926117 227 2058ft 108kts
21-Nov-20 17:19 33.606519 -117.954033 227 2872ft 109kts
21-Nov-20 17:20 33.582379 -117.986093 227 2905ft 112kts
21-Nov-20 17:21 33.572252 -118.016438 316 2905ft 104kts
21-Nov-20 17:22 33.603043 -118.008786 23 2910ft 125kts
21-Nov-20 17:23 33.638423 -117.990382 23 2908ft 133kts
21-Nov-20 17:24 33.674716 -117.971556 23 2908ft 133kts
21-Nov-20 17:25 33.711240 -117.952676 23 2908ft 133kts
21-Nov-20 17:26 33.747730 -117.933835 23 2908ft 133kts
21-Nov-20 17:27 33.783783 -117.915255 22 2908ft 133kts
21-Nov-20 17:28 33.819804 -117.896745 22 2908ft 133kts
21-Nov-20 17:29 33.856071 -117.878165 22 2881ft 134kts
21-Nov-20 17:30 33.892034 -117.859770 22 2878ft 120kts
21-Nov-20 17:31 33.910535 -117.835226 88 2882ft 107kts
21-Nov-20 17:32 33.911075 -117.793956 88 2881ft 117kts
21-Nov-20 17:33 33.911623 -117.752122 88 2881ft 117kts
21-Nov-20 17:34 33.885757 -117.737631 204 2879ft 114kts
21-Nov-20 17:35 33.857346 -117.753077 206 2881ft 110kts
21-Nov-20 17:36 33.827397 -117.771906 207 2880ft 113kts
21-Nov-20 17:37 33.799421 -117.789777 207 2649ft 91kts
21-Nov-20 17:38 33.777039 -117.804055 207 2201ft 86kts
21-Nov-20 17:39 33.751423 -117.820439 207 1641ft 101kts
21-Nov-20 17:40 33.726659 -117.836260 207 1090ft 65kts
21-Nov-20 17:41 33.707488 -117.848488 207 667ft 74kts
21-Nov-20 17:42 33.689266 -117.860108 207 269ft 68kts
21-Nov-20 17:43 33.675898 -117.869594 290 60ft 14kts
21-Nov-20 17:44 33.675949 -117.869763 288 60ft 2kts
21-Nov-20 17:45 33.676005 -117.871067 19 60ft 0kts
21-Nov-20 17:46 33.676005 -117.871067 19 60ft 0kts
21-Nov-20 17:47 33.676005 -117.871067 19 60ft 0kts
21-Nov-20 17:48 33.676005 -117.871067 19 60ft 0kts
21-Nov-20 17:50 33.676005 -117.871067 19 60ft 0kts
21-Nov-20 17:51 33.676005 -117.871067 19 60ft 0kts
21-Nov-20 17:52 33.676005 -117.871067 19 60ft 0kts
21-Nov-20 17:53 33.676005 -117.871067 19 60ft 0kts
21-Nov-20 17:54 33.676005 -117.871067 19 60ft 0kts
21-Nov-20 17:55 33.676005 -117.871067 19 60ft 0kts
21-Nov-20 17:56 33.676005 -117.871067 19 60ft 0kts
21-Nov-20 17:57 33.676005 -117.871067 19 60ft 0kts
21-Nov-20 17:58 33.676005 -117.871067 19 60ft 0kts

Navigation Log

Ident Type
Flight plan parsing failed, navigation log unavailable